Airfield :
LOGIN :

Register | Disclaimer

   EN    FR    IT 

 










Legend :    VFR   Marginal VFR   IFR   Intensive IFR   Very Intensive IFR
Visi :
Ceiling :
>= 8 km
>= 3000ft
5 to 8 km
1000 to 3000 ft
1500m to 5 km
500 to 1000 ft
800 to 1500m
200 to 500 ft
< 800m
< 200 ft
Symbols :   Thunderstorms  Fog  Heavy snow  Heavy precipitations  Wind > 20 kt
SIGMETs :     Misc.  Thunderstorms  Icing  Turbulence  Mountain Waves  Volcanic Ashes






- Airport Elevation : 48 ft
- IATA code : PSR


LIBP - Abruzzo Pescara

CURRENT METAR :
  • 050150Z AUTO 22006KT 9999 OVC084/// 18/17 Q1009

EXPIRED METARs :
  • 050120Z AUTO 23006KT 9999 -RA OVC078/// 18/17 Q1009 RERA
  • 050050Z AUTO 21007KT 9999 -RA OVC091/// 18/17 Q1009
  • 050020Z AUTO 22007KT 9999 -RA OVC096/// 18/17 Q1009
  • 042350Z AUTO 23008KT 9999 -RA OVC095/// 18/17 Q1009
  • 042320Z AUTO 25004KT 190V280 9999 -RA OVC073/// 19/17 Q1009 RERA

TAF TAF LIBP
Valid from the 05 at 00:00 until the 06 at 00:00 UTC


042300Z 0500/0524 33015KT 9999 SCT030
TEMPO 0500/0510 TSRA



MET'MAP, your aeronautical weather chart ! - Copyright ORBIFLY December 2007 - Disclaimer

ORBIFLY MET'MAP TEAM :

Programming & Development : Alexandra Zaïnal
Concept & original design : Baudouin d'Aumeries
Assistance for programming : Marc-Olivier Méhu
Technical & hardware support : Manuel Goepfert

Contact : metmap@orbifly.com




SOURCES & CREDITS :

   NOAA